createdAt,value
2022-08-22T00:01:50.482Z,3.20
2022-08-22T00:02:52.977Z,4.63
2022-08-22T00:04:28.447Z,2.88
2022-08-22T00:07:08.446Z,3.00
2022-08-22T00:09:43.488Z,2.90
2022-08-22T00:12:22.688Z,3.20
2022-08-22T00:15:00.063Z,3.00
2022-08-22T00:17:46.549Z,3.25
2022-08-22T00:20:28.196Z,3.28
2022-08-22T00:23:00.850Z,2.97
2022-08-22T00:25:43.722Z,2.97
2022-08-22T00:28:32.567Z,2.88
2022-08-22T00:31:09.888Z,3.00
2022-08-22T00:33:46.633Z,3.10
2022-08-22T00:36:25.829Z,3.00
2022-08-22T00:39:04.269Z,3.38
2022-08-22T00:42:28.997Z,2.88
2022-08-22T00:45:46.040Z,2.65
2022-08-22T00:48:57.081Z,2.67
2022-08-22T00:52:02.524Z,2.10
2022-08-22T00:54:56.172Z,2.38
2022-08-22T00:57:38.130Z,2.95
2022-08-22T01:00:18.490Z,2.10
2022-08-22T01:03:32.078Z,2.20
2022-08-22T01:06:17.799Z,2.80
2022-08-22T01:09:03.986Z,2.60
2022-08-22T01:11:45.276Z,2.45
2022-08-22T01:14:35.396Z,2.58
2022-08-22T01:17:36.341Z,2.60
2022-08-22T01:20:36.420Z,2.50
2022-08-22T01:23:48.276Z,2.85
2022-08-22T01:26:54.435Z,2.40
2022-08-22T01:30:11.819Z,2.10
2022-08-22T01:33:21.284Z,2.13
2022-08-22T01:36:25.969Z,2.00
2022-08-22T01:39:30.216Z,2.25
2022-08-22T01:42:35.696Z,2.45
2022-08-22T01:45:40.324Z,2.22
2022-08-22T01:48:14.797Z,1.90
2022-08-22T01:50:48.048Z,2.17
2022-08-22T01:53:24.196Z,2.45
2022-08-22T01:56:02.051Z,2.13
2022-08-22T01:58:32.929Z,2.05
2022-08-22T02:01:14.100Z,2.42
2022-08-22T02:03:56.963Z,2.20
2022-08-22T02:06:36.918Z,1.80
2022-08-22T02:09:13.911Z,2.80
2022-08-22T02:11:47.570Z,2.22
2022-08-22T02:14:24.177Z,2.30
2022-08-22T02:16:57.730Z,2.00
2022-08-22T02:19:39.198Z,2.50
2022-08-22T02:22:23.311Z,2.17
2022-08-22T02:25:04.396Z,2.05
2022-08-22T02:27:47.473Z,2.58
2022-08-22T02:30:18.231Z,2.22
2022-08-22T02:33:04.550Z,2.10
2022-08-22T02:35:36.624Z,2.00
2022-08-22T02:38:24.579Z,2.92
2022-08-22T02:41:05.578Z,2.90
2022-08-22T02:43:43.328Z,2.00
2022-08-22T02:46:24.186Z,3.45
2022-08-22T02:49:02.413Z,2.88
2022-08-22T02:51:37.853Z,2.15
2022-08-22T02:54:16.143Z,2.10
2022-08-22T02:56:53.393Z,2.30
2022-08-22T02:59:33.316Z,2.20
2022-08-22T03:02:28.653Z,2.10
2022-08-22T03:05:00.975Z,2.40
2022-08-22T03:07:37.387Z,2.37
2022-08-22T03:10:18.228Z,2.70
2022-08-22T03:12:58.335Z,2.17
2022-08-22T03:15:34.161Z,2.30
2022-08-22T03:18:07.270Z,2.00
2022-08-22T03:23:24.173Z,2.42
2022-08-22T03:26:00.529Z,2.78
2022-08-22T03:28:33.456Z,2.70
2022-08-22T03:31:11.056Z,2.35
2022-08-22T03:33:39.612Z,2.35
2022-08-22T03:36:23.184Z,2.60
2022-08-22T03:39:08.164Z,2.53
2022-08-22T03:42:22.471Z,2.67
2022-08-22T03:45:49.788Z,2.60
2022-08-22T03:49:03.111Z,2.53
2022-08-22T03:51:49.490Z,2.80
2022-08-22T03:54:50.350Z,2.75
2022-08-22T03:58:00.873Z,2.60
2022-08-22T04:01:00.332Z,2.42
2022-08-22T04:04:19.215Z,2.80
2022-08-22T04:07:31.604Z,3.65
2022-08-22T04:10:40.517Z,3.22
2022-08-22T04:13:40.487Z,3.15
2022-08-22T04:16:32.823Z,3.08
2022-08-22T04:19:32.039Z,3.22
2022-08-22T04:22:40.710Z,3.22
2022-08-22T04:25:16.619Z,2.47
2022-08-22T04:27:56.577Z,3.33
2022-08-22T04:30:35.985Z,3.90
2022-08-22T04:33:08.658Z,3.63
2022-08-22T04:35:44.366Z,3.65
2022-08-22T04:38:31.693Z,3.55
2022-08-22T04:41:10.155Z,3.13
2022-08-22T04:43:42.922Z,3.35
2022-08-22T04:46:41.228Z,4.50
2022-08-22T04:49:19.496Z,3.97
2022-08-22T04:52:08.083Z,3.75
2022-08-22T04:54:52.893Z,3.70
2022-08-22T04:57:32.159Z,3.75
2022-08-22T05:00:08.054Z,3.40
2022-08-22T05:02:43.111Z,3.22
2022-08-22T05:05:28.611Z,3.60
2022-08-22T05:08:03.182Z,3.10
2022-08-22T05:10:39.897Z,3.53
2022-08-22T05:13:13.453Z,3.40
2022-08-22T05:15:47.543Z,3.50
2022-08-22T05:18:21.145Z,3.42
2022-08-22T05:20:54.520Z,3.70
2022-08-22T05:23:29.818Z,3.70
2022-08-22T05:26:06.229Z,3.78
2022-08-22T05:28:44.827Z,4.30
2022-08-22T05:31:16.533Z,3.75
2022-08-22T05:33:50.850Z,4.00
2022-08-22T05:36:26.028Z,3.25
2022-08-22T05:38:58.353Z,3.20
2022-08-22T05:41:34.175Z,3.00
2022-08-22T05:44:04.014Z,2.83
2022-08-22T05:46:42.104Z,3.00
2022-08-22T05:49:19.184Z,3.55
2022-08-22T05:51:54.976Z,3.08
2022-08-22T05:54:34.373Z,3.25
2022-08-22T05:57:15.171Z,2.55
2022-08-22T05:59:45.316Z,2.92
2022-08-22T06:02:20.673Z,3.17
2022-08-22T06:04:52.426Z,2.88
2022-08-22T06:07:25.340Z,2.90
2022-08-22T06:10:06.759Z,3.20
2022-08-22T06:12:43.460Z,2.72
2022-08-22T06:15:16.907Z,3.22
2022-08-22T06:17:55.256Z,3.60
2022-08-22T06:20:32.606Z,4.00
2022-08-22T06:23:03.607Z,3.70
2022-08-22T06:25:35.096Z,4.32
2022-08-22T06:28:08.849Z,3.90
2022-08-22T06:30:39.976Z,3.80
2022-08-22T06:33:12.731Z,3.60
2022-08-22T06:35:58.244Z,4.05
2022-08-22T06:38:33.237Z,3.25
2022-08-22T06:41:03.891Z,3.55
2022-08-22T06:43:39.591Z,3.28
2022-08-22T06:46:08.543Z,3.88
2022-08-22T06:48:37.362Z,3.67
2022-08-22T06:51:08.630Z,3.38
2022-08-22T06:53:47.875Z,3.83
2022-08-22T06:56:22.243Z,3.60
2022-08-22T06:58:55.298Z,3.70
2022-08-22T07:01:27.132Z,3.65
2022-08-22T07:03:59.572Z,3.90
2022-08-22T07:06:32.074Z,3.90
2022-08-22T07:09:00.280Z,3.47
2022-08-22T07:11:39.476Z,4.05
2022-08-22T07:14:11.884Z,3.75
2022-08-22T07:16:43.742Z,3.55
2022-08-22T07:19:24.599Z,3.30
2022-08-22T07:21:53.188Z,3.45
2022-08-22T07:24:25.097Z,3.85
2022-08-22T07:27:15.835Z,3.25
2022-08-22T07:29:53.003Z,3.15
2022-08-22T07:32:29.156Z,3.70
2022-08-22T07:35:12.218Z,3.63
2022-08-22T07:37:59.314Z,4.00
2022-08-22T07:40:42.797Z,2.90
2022-08-22T07:43:25.256Z,3.10
2022-08-22T07:45:59.748Z,3.25
2022-08-22T07:48:38.258Z,3.33
2022-08-22T07:51:17.564Z,3.33
2022-08-22T07:56:21.041Z,3.20
2022-08-22T07:59:09.896Z,2.90
2022-08-22T08:01:48.998Z,3.00
2022-08-22T08:04:23.302Z,3.55
2022-08-22T08:06:54.393Z,3.13
2022-08-22T08:09:24.092Z,3.90
2022-08-22T08:11:55.727Z,3.63
2022-08-22T08:14:25.611Z,3.40
2022-08-22T08:17:03.199Z,3.65
2022-08-22T08:19:34.587Z,3.28
2022-08-22T08:22:04.980Z,3.80
2022-08-22T08:24:40.492Z,3.42
2022-08-22T08:27:34.261Z,3.33
2022-08-22T08:30:06.245Z,3.83
2022-08-22T08:32:39.291Z,3.50
2022-08-22T08:35:25.484Z,3.58
2022-08-22T08:37:58.051Z,3.80
2022-08-22T08:40:56.889Z,4.22
2022-08-22T08:43:41.759Z,3.67
2022-08-22T08:46:34.832Z,3.92
2022-08-22T08:49:42.866Z,3.53
2022-08-22T08:52:41.488Z,3.80
2022-08-22T08:55:22.606Z,4.10
2022-08-22T08:58:07.107Z,3.20
2022-08-22T09:01:02.748Z,3.78
2022-08-22T09:04:16.609Z,4.65
2022-08-22T09:07:07.652Z,4.25
2022-08-22T09:09:58.404Z,3.60
2022-08-22T09:13:12.205Z,4.00
2022-08-22T09:16:11.970Z,3.65
2022-08-22T09:19:15.764Z,4.35
2022-08-22T09:22:14.654Z,3.53
2022-08-22T09:25:12.856Z,3.72
2022-08-22T09:27:50.239Z,3.97
2022-08-22T09:33:15.903Z,3.78
2022-08-22T09:35:54.296Z,3.90
2022-08-22T09:38:47.718Z,3.78
2022-08-22T09:41:36.651Z,3.70
2022-08-22T09:44:17.476Z,3.80
2022-08-22T09:46:59.217Z,3.40
2022-08-22T09:49:41.154Z,3.55
2022-08-22T09:52:33.939Z,3.28
2022-08-22T09:55:08.139Z,3.92
2022-08-22T09:57:42.354Z,3.42
2022-08-22T10:00:22.329Z,3.95
2022-08-22T10:03:07.062Z,3.65
2022-08-22T10:05:44.928Z,3.22
2022-08-22T10:08:30.770Z,3.40
2022-08-22T10:11:16.203Z,3.72
2022-08-22T10:13:57.793Z,3.30
2022-08-22T10:16:56.369Z,3.60
2022-08-22T10:19:31.989Z,3.55
2022-08-22T10:22:30.370Z,3.25
2022-08-22T10:25:18.547Z,4.00
2022-08-22T10:27:57.629Z,3.95
2022-08-22T10:30:34.160Z,3.95
2022-08-22T10:33:11.399Z,4.45
2022-08-22T10:35:55.237Z,3.80
2022-08-22T10:38:28.821Z,4.75
2022-08-22T10:41:09.404Z,3.20
2022-08-22T10:43:46.324Z,3.88
2022-08-22T10:46:19.041Z,4.75
2022-08-22T10:51:28.695Z,3.75
2022-08-22T10:54:35.064Z,3.40
2022-08-22T10:57:30.220Z,3.05
2022-08-22T11:00:13.375Z,3.20
2022-08-22T11:03:00.834Z,3.50
2022-08-22T11:05:41.286Z,3.42
2022-08-22T11:08:47.687Z,3.00
2022-08-22T11:11:36.211Z,3.33
2022-08-22T11:14:25.883Z,3.17
2022-08-22T11:17:27.353Z,3.13
2022-08-22T11:20:20.005Z,3.17
2022-08-22T11:23:12.396Z,3.80
2022-08-22T11:25:58.104Z,3.50
2022-08-22T11:29:11.271Z,2.83
2022-08-22T11:32:05.605Z,3.08
2022-08-22T11:34:58.549Z,3.15
2022-08-22T11:37:45.948Z,2.65
2022-08-22T11:40:57.585Z,2.85
2022-08-22T11:43:57.033Z,3.60
2022-08-22T11:46:54.447Z,2.88
2022-08-22T11:49:51.527Z,3.78
2022-08-22T11:52:33.229Z,4.32
2022-08-22T11:55:32.716Z,3.25
2022-08-22T11:58:29.112Z,2.92
2022-08-22T12:01:13.017Z,3.30
2022-08-22T12:04:12.711Z,3.00
2022-08-22T12:07:10.002Z,2.40
2022-08-22T12:09:55.190Z,2.63
2022-08-22T12:12:53.293Z,2.78
2022-08-22T12:15:25.339Z,2.30
2022-08-22T12:18:21.302Z,2.20
2022-08-22T12:21:11.044Z,2.42
2022-08-22T12:24:18.968Z,2.33
2022-08-22T12:27:01.288Z,2.35
2022-08-22T12:29:49.909Z,2.85
2022-08-22T12:32:59.969Z,2.15
2022-08-22T12:35:43.531Z,2.25
2022-08-22T12:41:49.647Z,2.45
2022-08-22T12:45:00.114Z,2.42
2022-08-22T12:47:44.862Z,2.53
2022-08-22T12:50:37.467Z,2.30
2022-08-22T12:53:47.674Z,2.63
2022-08-22T12:56:28.691Z,2.42
2022-08-22T12:59:33.784Z,2.88
2022-08-22T13:02:17.604Z,2.72
2022-08-22T13:04:52.902Z,2.38
2022-08-22T13:07:27.232Z,2.30
2022-08-22T13:10:01.722Z,2.38
2022-08-22T13:12:58.909Z,2.25
2022-08-22T13:16:02.309Z,2.92
2022-08-22T13:18:46.793Z,2.40
2022-08-22T13:21:41.070Z,2.60
2022-08-22T13:24:22.657Z,2.63
2022-08-22T13:27:12.032Z,2.70
2022-08-22T13:30:00.317Z,2.38
2022-08-22T13:32:46.145Z,2.67
2022-08-22T13:35:26.193Z,2.75
2022-08-22T13:38:08.170Z,2.60
2022-08-22T13:40:56.053Z,2.78
2022-08-22T13:43:29.037Z,2.40
2022-08-22T13:46:07.316Z,2.40
2022-08-22T13:49:01.175Z,2.70
2022-08-22T13:51:47.671Z,2.83
2022-08-22T13:54:45.140Z,2.47
2022-08-22T13:57:32.904Z,2.80
2022-08-22T14:00:37.956Z,2.30
2022-08-22T14:03:39.490Z,2.17
2022-08-22T14:06:35.483Z,2.53
2022-08-22T14:09:29.438Z,2.50
2022-08-22T14:12:33.277Z,2.63
2022-08-22T14:15:08.869Z,2.35
2022-08-22T14:21:05.730Z,2.22
2022-08-22T14:34:47.543Z,2.33
2022-08-22T14:37:41.754Z,2.53
2022-08-22T14:40:45.009Z,2.33
2022-08-22T14:52:30.967Z,2.47
2022-08-22T14:55:11.975Z,2.10
2022-08-22T14:57:47.126Z,2.00
2022-08-22T15:00:28.672Z,2.38
2022-08-22T15:03:12.699Z,2.40
2022-08-22T15:06:00.599Z,2.00
2022-08-22T15:08:33.968Z,2.10
2022-08-22T15:11:25.632Z,2.22
2022-08-22T15:14:04.645Z,1.90
2022-08-22T15:16:40.625Z,2.10
2022-08-22T15:19:28.001Z,2.08
2022-08-22T15:22:15.829Z,1.90
2022-08-22T15:24:56.881Z,1.80
2022-08-22T15:27:29.429Z,1.80
2022-08-22T15:30:20.560Z,2.72
2022-08-22T15:32:57.657Z,2.20
2022-08-22T15:35:40.747Z,2.10
2022-08-22T15:38:36.273Z,2.22
2022-08-22T15:41:49.156Z,2.30
2022-08-22T15:44:37.318Z,2.50
2022-08-22T15:47:40.003Z,2.30
2022-08-22T15:50:36.745Z,2.60
2022-08-22T15:53:24.422Z,2.55
2022-08-22T15:56:42.041Z,2.10
2022-08-22T16:00:01.599Z,2.20
2022-08-22T16:02:42.935Z,2.28
2022-08-22T16:05:55.385Z,2.03
2022-08-22T16:08:49.863Z,2.10
2022-08-22T16:11:40.592Z,1.77
2022-08-22T16:14:50.917Z,1.70
2022-08-22T16:17:47.164Z,2.00
2022-08-22T16:21:01.766Z,1.85
2022-08-22T16:24:23.512Z,1.65
2022-08-22T16:26:57.629Z,1.83
2022-08-22T16:29:41.419Z,2.10
2022-08-22T16:32:28.558Z,2.35
2022-08-22T16:35:03.840Z,2.00
2022-08-22T16:38:04.079Z,1.92
2022-08-22T16:40:33.535Z,1.92
2022-08-22T16:43:21.616Z,2.38
2022-08-22T16:45:53.368Z,2.17
2022-08-22T16:48:38.017Z,1.80
2022-08-22T16:51:12.790Z,2.13
2022-08-22T16:54:06.562Z,2.40
2022-08-22T16:57:02.361Z,2.10
2022-08-22T16:59:47.590Z,1.80
2022-08-22T17:02:46.871Z,1.73
2022-08-22T17:05:51.940Z,2.28
2022-08-22T17:08:50.741Z,2.13
2022-08-22T17:11:38.299Z,2.17
2022-08-22T17:14:21.186Z,2.35
2022-08-22T17:17:00.648Z,2.00
2022-08-22T17:19:48.335Z,2.15
2022-08-22T17:22:29.229Z,2.15
2022-08-22T17:25:21.309Z,2.03
2022-08-22T17:28:05.210Z,2.35
2022-08-22T17:30:41.697Z,2.20
2022-08-22T17:33:28.616Z,2.03
2022-08-22T17:36:26.693Z,2.63
2022-08-22T17:39:40.690Z,2.40
2022-08-22T17:42:38.173Z,2.22
2022-08-22T17:45:34.330Z,2.50
2022-08-22T17:48:09.002Z,2.45
2022-08-22T17:50:49.605Z,2.58
2022-08-22T17:53:33.631Z,2.30
2022-08-22T17:56:20.013Z,2.75
2022-08-22T17:58:56.568Z,2.90
2022-08-22T18:01:51.710Z,2.78
2022-08-22T18:04:26.493Z,2.22
2022-08-22T18:07:08.178Z,3.05
2022-08-22T18:09:48.434Z,2.70
2022-08-22T18:12:23.101Z,2.70
2022-08-22T18:15:03.209Z,2.70
2022-08-22T18:17:44.523Z,3.17
2022-08-22T18:20:28.716Z,3.03
2022-08-22T18:23:21.512Z,3.03
2022-08-22T18:26:08.742Z,2.75
2022-08-22T18:28:45.085Z,2.60
2022-08-22T18:31:37.789Z,2.53
2022-08-22T18:36:49.573Z,2.92
2022-08-22T18:39:29.241Z,3.45
2022-08-22T18:42:07.157Z,4.07
2022-08-22T18:44:40.739Z,5.03
2022-08-22T18:47:23.493Z,3.70
2022-08-22T18:50:00.180Z,3.05
2022-08-22T18:52:44.387Z,2.80
2022-08-22T18:55:56.542Z,3.42
2022-08-22T18:59:01.921Z,3.28
2022-08-22T19:01:58.022Z,3.28
2022-08-22T19:05:13.198Z,2.92
2022-08-22T19:08:15.734Z,3.35
2022-08-22T19:11:08.435Z,4.70
2022-08-22T19:13:59.899Z,4.32
2022-08-22T19:17:05.063Z,3.42
2022-08-22T19:20:07.410Z,3.75
2022-08-22T19:22:38.725Z,3.58
2022-08-22T19:25:15.375Z,3.90
2022-08-22T19:27:49.216Z,3.60
2022-08-22T19:30:45.312Z,3.40
2022-08-22T19:33:19.318Z,4.18
2022-08-22T19:36:12.894Z,3.80
2022-08-22T19:38:56.479Z,3.83
2022-08-22T19:41:46.641Z,3.60
2022-08-22T19:44:37.723Z,3.40
2022-08-22T19:47:24.019Z,3.13
2022-08-22T19:50:00.348Z,3.70
2022-08-22T19:52:39.498Z,3.47
2022-08-22T19:55:16.358Z,3.42
2022-08-22T19:57:49.988Z,3.50
2022-08-22T20:00:21.745Z,3.83
2022-08-22T20:03:12.015Z,4.50
2022-08-22T20:05:56.591Z,3.83
2022-08-22T20:08:48.290Z,4.15
2022-08-22T20:11:32.613Z,4.05
2022-08-22T20:14:30.382Z,4.28
2022-08-22T20:17:18.761Z,4.72
2022-08-22T20:22:48.990Z,3.85
2022-08-22T20:25:43.412Z,4.03
2022-08-22T20:28:30.901Z,4.10
2022-08-22T20:31:01.537Z,3.95
2022-08-22T20:33:33.607Z,4.45
2022-08-22T20:36:05.210Z,4.50
2022-08-22T20:38:39.604Z,4.70
2022-08-22T20:41:20.969Z,4.28
2022-08-22T20:43:55.448Z,4.15
2022-08-22T20:46:46.320Z,4.10
2022-08-22T20:49:18.833Z,3.80
2022-08-22T20:51:52.661Z,3.30
2022-08-22T20:54:24.240Z,3.42
2022-08-22T20:56:55.432Z,3.50
2022-08-22T20:59:29.607Z,3.63
2022-08-22T21:02:05.752Z,3.13
2022-08-22T21:04:43.864Z,4.18
2022-08-22T21:07:12.028Z,3.95
2022-08-22T21:09:58.005Z,4.15
2022-08-22T21:12:26.399Z,4.03
2022-08-22T21:14:55.740Z,3.80
2022-08-22T21:17:29.077Z,3.90
2022-08-22T21:20:18.052Z,3.40
2022-08-22T21:22:46.182Z,3.85
2022-08-22T21:25:14.306Z,3.53
2022-08-22T21:27:47.744Z,3.10
2022-08-22T21:30:24.901Z,3.30
2022-08-22T21:32:56.177Z,3.42
2022-08-22T21:35:29.029Z,3.15
2022-08-22T21:37:58.911Z,3.35
2022-08-22T21:40:33.354Z,3.40
2022-08-22T21:43:06.652Z,3.28
2022-08-22T21:45:43.473Z,3.03
2022-08-22T21:48:38.715Z,3.00
2022-08-22T21:51:32.857Z,2.80
2022-08-22T21:54:20.404Z,3.03
2022-08-22T21:56:48.772Z,3.30
2022-08-22T21:59:21.213Z,3.28
2022-08-22T22:01:55.685Z,3.08
2022-08-22T22:04:23.882Z,2.95
2022-08-22T22:06:51.838Z,2.72
2022-08-22T22:09:20.098Z,3.00
2022-08-22T22:11:48.349Z,3.00
2022-08-22T22:14:16.474Z,2.42
2022-08-22T22:16:44.500Z,2.55
2022-08-22T22:19:14.082Z,2.78
2022-08-22T22:21:42.165Z,2.70
2022-08-22T22:24:10.164Z,3.00
2022-08-22T22:26:38.536Z,2.90
2022-08-22T22:29:07.876Z,2.67
2022-08-22T22:31:37.029Z,2.80
2022-08-22T22:34:05.145Z,2.80
2022-08-22T22:36:35.340Z,2.83
2022-08-22T22:39:08.198Z,2.72
2022-08-22T22:41:37.367Z,2.53
2022-08-22T22:44:05.897Z,2.40
2022-08-22T22:46:34.028Z,2.55
2022-08-22T22:49:02.278Z,3.13
2022-08-22T22:51:30.423Z,2.55
2022-08-22T22:53:59.873Z,2.65
2022-08-22T22:56:28.941Z,2.45
2022-08-22T22:59:00.662Z,2.63
2022-08-22T23:01:33.437Z,2.20
2022-08-22T23:04:05.686Z,2.80
2022-08-22T23:06:34.367Z,2.55
2022-08-22T23:09:03.842Z,2.78
2022-08-22T23:11:32.502Z,2.60
2022-08-22T23:14:02.176Z,2.33
2022-08-22T23:16:36.509Z,2.60
2022-08-22T23:19:09.747Z,2.30
2022-08-22T23:21:37.715Z,2.70
2022-08-22T23:24:07.274Z,2.60
2022-08-22T23:26:36.141Z,2.08
2022-08-22T23:29:06.123Z,2.13
2022-08-22T23:31:36.031Z,2.90
2022-08-22T23:34:06.567Z,2.70
2022-08-22T23:36:34.692Z,2.40
2022-08-22T23:39:02.748Z,2.80
2022-08-22T23:41:32.476Z,2.60
2022-08-22T23:44:00.434Z,2.72
2022-08-22T23:46:28.611Z,2.50
2022-08-22T23:48:59.379Z,2.70
2022-08-22T23:51:27.989Z,2.75
2022-08-22T23:53:58.371Z,2.90
2022-08-22T23:56:29.331Z,2.53
2022-08-22T23:58:59.808Z,2.78
